createdAt,value
2023-03-29T00:00:14.485Z,98274.94
2023-03-29T00:02:43.253Z,98277.53
2023-03-29T00:05:12.395Z,98274.09
2023-03-29T00:07:41.329Z,98272.41
2023-03-29T00:10:11.175Z,98273.31
2023-03-29T00:12:41.110Z,98277.66
2023-03-29T00:15:11.830Z,98276.91
2023-03-29T00:17:40.259Z,98275.06
2023-03-29T00:20:10.317Z,98272.53
2023-03-29T00:22:42.271Z,98272.34
2023-03-29T00:25:11.502Z,98275.03
2023-03-29T00:27:39.975Z,98276.03
2023-03-29T00:30:11.295Z,98284.84
2023-03-29T00:32:39.501Z,98284.75
2023-03-29T00:35:09.138Z,98284.75
2023-03-29T00:37:38.103Z,98289.22
2023-03-29T00:40:09.893Z,98294.56
2023-03-29T00:42:38.249Z,98287.59
2023-03-29T00:45:18.868Z,98285.94
2023-03-29T00:47:51.596Z,98295.59
2023-03-29T00:50:25.943Z,98277.38
2023-03-29T00:53:00.952Z,98273.09
2023-03-29T00:55:34.263Z,98271.38
2023-03-29T00:58:05.236Z,98274.97
2023-03-29T01:00:38.044Z,98266.38
2023-03-29T01:03:13.893Z,98268.22
2023-03-29T01:05:46.623Z,98258.66
2023-03-29T01:08:20.849Z,98264.72
2023-03-29T01:10:52.413Z,98261.22
2023-03-29T01:13:26.426Z,98264.66
2023-03-29T01:15:57.637Z,98250.72
2023-03-29T01:18:27.780Z,98252.31
2023-03-29T01:21:15.512Z,98255.81
2023-03-29T01:23:58.395Z,98245.41
2023-03-29T01:26:37.288Z,98242.00
2023-03-29T01:29:11.066Z,98238.66
2023-03-29T01:31:43.470Z,98247.25
2023-03-29T01:34:16.217Z,98249.09
2023-03-29T01:36:51.674Z,98248.28
2023-03-29T01:39:20.645Z,98248.28
2023-03-29T01:41:57.942Z,98255.16
2023-03-29T01:44:33.123Z,98252.47
2023-03-29T01:47:08.355Z,98249.84
2023-03-29T01:49:42.305Z,98260.41
2023-03-29T01:52:18.100Z,98262.91
2023-03-29T01:54:51.954Z,98263.00
2023-03-29T01:57:25.187Z,98258.59
2023-03-29T01:59:57.743Z,98262.00
2023-03-29T02:02:29.064Z,98257.66
2023-03-29T02:04:59.433Z,98264.66
2023-03-29T02:07:32.414Z,98262.91
2023-03-29T02:10:01.033Z,98264.66
2023-03-29T02:12:29.246Z,98265.47
2023-03-29T02:15:00.853Z,98265.53
2023-03-29T02:17:30.100Z,98258.59
2023-03-29T02:20:02.120Z,98263.84
2023-03-29T02:22:37.802Z,98263.81
2023-03-29T02:25:09.578Z,98266.38
2023-03-29T02:27:39.242Z,98266.34
2023-03-29T02:30:11.990Z,98261.88
2023-03-29T02:32:50.322Z,98257.31
2023-03-29T02:35:24.890Z,98244.28
2023-03-29T02:37:56.505Z,98253.81
2023-03-29T02:40:26.121Z,98255.63
2023-03-29T02:42:56.801Z,98253.00
2023-03-29T02:45:27.778Z,98255.69
2023-03-29T02:47:58.719Z,98245.16
2023-03-29T02:50:30.367Z,98241.66
2023-03-29T02:53:01.863Z,98249.47
2023-03-29T02:55:34.885Z,98242.44
2023-03-29T02:58:08.051Z,98243.41
2023-03-29T03:00:40.919Z,98243.38
2023-03-29T03:03:10.390Z,98245.06
2023-03-29T03:05:39.134Z,98243.28
2023-03-29T03:08:08.780Z,98256.25
2023-03-29T03:10:37.218Z,98246.69
2023-03-29T03:13:05.878Z,98243.31
2023-03-29T03:15:35.929Z,98245.06
2023-03-29T03:18:05.936Z,98244.16
2023-03-29T03:20:34.828Z,98237.22
2023-03-29T03:23:04.315Z,98243.31
2023-03-29T03:25:33.254Z,98234.59
2023-03-29T03:28:01.492Z,98231.03
2023-03-29T03:30:30.010Z,98222.16
2023-03-29T03:33:29.243Z,98226.41
2023-03-29T03:36:36.201Z,98225.56
2023-03-29T03:39:07.241Z,98227.28
2023-03-29T03:41:36.027Z,98234.25
2023-03-29T03:44:04.374Z,98227.28
2023-03-29T03:46:32.771Z,98223.00
2023-03-29T03:49:03.129Z,98229.13
2023-03-29T03:51:34.467Z,98218.81
2023-03-29T03:54:02.822Z,98221.28
2023-03-29T03:56:37.420Z,98215.97
2023-03-29T03:59:05.953Z,98190.66
2023-03-29T04:01:51.156Z,98195.75
2023-03-29T04:04:24.873Z,98202.59
2023-03-29T04:07:19.569Z,98208.88
2023-03-29T04:09:56.499Z,98201.88
2023-03-29T04:12:50.654Z,98187.97
2023-03-29T04:15:20.386Z,98195.81
2023-03-29T04:18:01.521Z,98180.25
2023-03-29T04:20:37.514Z,98186.38
2023-03-29T04:23:06.142Z,98184.47
2023-03-29T04:25:35.389Z,98174.00
2023-03-29T04:28:23.936Z,98179.09
2023-03-29T04:31:13.378Z,98175.56
2023-03-29T04:33:49.195Z,98172.38
2023-03-29T04:36:18.926Z,98175.78
2023-03-29T04:38:48.111Z,98172.25
2023-03-29T04:41:17.596Z,98176.53
2023-03-29T04:43:59.667Z,98180.94
2023-03-29T04:46:32.556Z,98188.69
2023-03-29T04:49:19.280Z,98187.69
2023-03-29T04:51:53.391Z,98176.34
2023-03-29T04:54:25.277Z,98173.75
2023-03-29T04:57:09.637Z,98173.66
2023-03-29T04:59:56.514Z,98168.31
2023-03-29T05:02:46.062Z,98174.41
2023-03-29T05:05:15.313Z,98170.88
2023-03-29T05:07:46.735Z,98175.22
2023-03-29T05:10:16.321Z,98178.94
2023-03-29T05:12:44.533Z,98173.59
2023-03-29T05:15:13.529Z,98182.34
2023-03-29T05:17:42.439Z,98171.91
2023-03-29T05:20:14.095Z,98172.63
2023-03-29T05:22:46.272Z,98172.72
2023-03-29T05:25:26.437Z,98165.63
2023-03-29T05:27:54.618Z,98159.41
2023-03-29T05:30:22.946Z,98168.94
2023-03-29T05:33:07.078Z,98163.41
2023-03-29T05:35:36.721Z,98175.44
2023-03-29T05:38:09.685Z,98170.97
2023-03-29T05:40:38.756Z,98175.31
2023-03-29T05:43:26.055Z,98182.56
2023-03-29T05:45:55.191Z,98181.72
2023-03-29T05:48:24.473Z,98178.00
2023-03-29T05:50:54.732Z,98180.59
2023-03-29T05:53:25.871Z,98180.81
2023-03-29T05:55:55.761Z,98190.34
2023-03-29T05:58:26.857Z,98197.28
2023-03-29T06:00:56.105Z,98198.88
2023-03-29T06:03:51.471Z,98197.94
2023-03-29T06:06:22.346Z,98196.16
2023-03-29T06:08:52.093Z,98193.50
2023-03-29T06:11:42.068Z,98197.78
2023-03-29T06:14:25.715Z,98189.75
2023-03-29T06:17:03.559Z,98185.16
2023-03-29T06:19:31.946Z,98195.44
2023-03-29T06:22:00.189Z,98178.69
2023-03-29T06:24:33.440Z,98174.94
2023-03-29T06:27:07.180Z,98175.72
2023-03-29T06:29:35.340Z,98173.91
2023-03-29T06:32:03.571Z,98177.31
2023-03-29T06:34:48.335Z,98171.09
2023-03-29T06:37:49.579Z,98167.41
2023-03-29T06:40:27.470Z,98169.09
2023-03-29T06:42:57.963Z,98182.09
2023-03-29T06:45:44.965Z,98172.19
2023-03-29T06:48:29.535Z,98167.69
2023-03-29T06:50:57.860Z,98163.91
2023-03-29T06:53:29.798Z,98172.59
2023-03-29T06:56:09.305Z,98169.81
2023-03-29T06:58:45.771Z,98174.16
2023-03-29T07:01:37.549Z,98177.44
2023-03-29T07:04:26.321Z,98175.50
2023-03-29T07:07:20.150Z,98171.81
2023-03-29T07:09:55.714Z,98182.09
2023-03-29T07:12:26.493Z,98178.03
2023-03-29T07:14:59.692Z,98187.81
2023-03-29T07:17:48.624Z,98188.28
2023-03-29T07:20:18.303Z,98195.25
2023-03-29T07:22:51.221Z,98193.53
2023-03-29T07:25:22.546Z,98201.31
2023-03-29T07:27:53.286Z,98200.19
2023-03-29T07:30:24.262Z,98202.84
2023-03-29T07:32:53.837Z,98203.25
2023-03-29T07:35:32.848Z,98218.16
2023-03-29T07:38:02.203Z,98209.59
2023-03-29T07:40:31.297Z,98200.66
2023-03-29T07:43:01.453Z,98186.47
2023-03-29T07:45:33.014Z,98191.16
2023-03-29T07:48:21.216Z,98188.34
2023-03-29T07:51:02.264Z,98172.44
2023-03-29T07:53:36.058Z,98186.03
2023-03-29T07:56:09.003Z,98190.84
2023-03-29T07:58:52.951Z,98200.22
2023-03-29T08:01:21.776Z,98199.09
2023-03-29T08:04:08.969Z,98188.69
2023-03-29T08:07:06.551Z,98197.19
2023-03-29T08:10:00.966Z,98193.31
2023-03-29T08:12:48.908Z,98201.47
2023-03-29T08:15:19.880Z,98203.00
2023-03-29T08:17:48.379Z,98208.06
2023-03-29T08:20:17.330Z,98197.41
2023-03-29T08:22:48.930Z,98193.41
2023-03-29T08:25:20.052Z,98193.00
2023-03-29T08:27:52.292Z,98195.72
2023-03-29T08:30:33.283Z,98196.47
2023-03-29T08:33:02.542Z,98189.59
2023-03-29T08:35:31.135Z,98192.00
2023-03-29T08:38:21.860Z,98188.50
2023-03-29T08:40:52.024Z,98181.06
2023-03-29T08:43:58.127Z,98183.19
2023-03-29T08:46:42.453Z,98188.72
2023-03-29T08:49:24.023Z,98195.31
2023-03-29T08:51:58.071Z,98181.06
2023-03-29T08:54:29.957Z,98188.88
2023-03-29T08:57:29.209Z,98192.59
2023-03-29T09:00:05.762Z,98179.88
2023-03-29T09:02:38.366Z,98175.13
2023-03-29T09:05:18.865Z,98172.44
2023-03-29T09:07:57.059Z,98168.81
2023-03-29T09:10:37.356Z,98172.09
2023-03-29T09:13:20.650Z,98176.34
2023-03-29T09:15:53.544Z,98166.84
2023-03-29T09:18:45.582Z,98170.72
2023-03-29T09:21:21.603Z,98163.97
2023-03-29T09:24:08.654Z,98165.78
2023-03-29T09:26:53.625Z,98172.34
2023-03-29T09:29:46.609Z,98162.47
2023-03-29T09:32:21.682Z,98165.88
2023-03-29T09:35:04.512Z,98171.91
2023-03-29T09:37:36.762Z,98166.06
2023-03-29T09:40:12.606Z,98164.59
2023-03-29T09:43:07.454Z,98168.13
2023-03-29T09:45:38.571Z,98159.53
2023-03-29T09:48:12.806Z,98165.94
2023-03-29T09:50:47.407Z,98171.84
2023-03-29T09:53:17.164Z,98160.19
2023-03-29T09:55:52.668Z,98156.78
2023-03-29T09:58:45.237Z,98155.91
2023-03-29T10:01:17.486Z,98159.69
2023-03-29T10:03:51.679Z,98155.66
2023-03-29T10:06:25.633Z,98156.06
2023-03-29T10:09:03.092Z,98150.53
2023-03-29T10:11:40.132Z,98144.78
2023-03-29T10:14:16.491Z,98139.13
2023-03-29T10:16:46.589Z,98140.41
2023-03-29T10:19:20.813Z,98128.06
2023-03-29T10:21:51.659Z,98129.78
2023-03-29T10:24:21.820Z,98135.22
2023-03-29T10:26:55.622Z,98132.25
2023-03-29T10:29:25.531Z,98124.91
2023-03-29T10:31:54.495Z,98130.19
2023-03-29T10:34:28.218Z,98124.19
2023-03-29T10:37:01.426Z,98112.41
2023-03-29T10:39:34.569Z,98117.44
2023-03-29T10:42:05.359Z,98119.50
2023-03-29T10:44:35.806Z,98106.34
2023-03-29T10:47:19.679Z,98114.13
2023-03-29T10:49:53.207Z,98105.31
2023-03-29T10:52:24.661Z,98104.34
2023-03-29T10:54:55.546Z,98098.53
2023-03-29T10:57:37.324Z,98094.19
2023-03-29T11:00:12.528Z,98093.19
2023-03-29T11:03:21.692Z,98097.91
2023-03-29T11:05:57.471Z,98099.47
2023-03-29T11:08:41.738Z,98095.06
2023-03-29T11:11:41.320Z,98086.56
2023-03-29T11:14:18.080Z,98098.06
2023-03-29T11:16:56.006Z,98095.75
2023-03-29T11:19:43.497Z,98083.97
2023-03-29T11:22:18.197Z,98083.63
2023-03-29T11:25:08.215Z,98074.50
2023-03-29T11:27:42.943Z,98076.63
2023-03-29T11:30:18.144Z,98075.81
2023-03-29T11:32:55.231Z,98067.34
2023-03-29T11:35:37.189Z,98065.22
2023-03-29T11:38:15.200Z,98060.78
2023-03-29T11:40:58.785Z,98052.50
2023-03-29T11:43:32.201Z,98062.50
2023-03-29T11:46:05.054Z,98050.94
2023-03-29T11:48:38.365Z,98051.81
2023-03-29T11:51:12.263Z,98050.94
2023-03-29T11:53:47.667Z,98047.03
2023-03-29T11:56:23.379Z,98056.16
2023-03-29T11:58:59.102Z,98047.81
2023-03-29T12:01:32.747Z,98047.66
2023-03-29T12:04:06.924Z,98030.19
2023-03-29T12:06:42.385Z,98036.88
2023-03-29T12:09:24.063Z,98030.47
2023-03-29T12:12:00.638Z,98028.25
2023-03-29T12:14:37.940Z,98029.09
2023-03-29T12:17:13.201Z,98025.06
2023-03-29T12:19:46.525Z,98015.38
2023-03-29T12:22:15.567Z,98018.50
2023-03-29T12:24:50.099Z,98014.59
2023-03-29T12:27:26.656Z,98020.63
2023-03-29T12:30:25.194Z,98014.66
2023-03-29T12:33:16.098Z,98003.56
2023-03-29T12:36:13.743Z,97992.28
2023-03-29T12:38:44.116Z,97997.69
2023-03-29T12:41:38.326Z,97994.63
2023-03-29T12:44:34.552Z,98001.53
2023-03-29T12:47:22.226Z,97992.53
2023-03-29T12:49:56.220Z,98000.53
2023-03-29T12:52:28.685Z,97999.03
2023-03-29T12:54:58.862Z,98000.16
2023-03-29T12:57:39.740Z,98000.22
2023-03-29T13:00:27.258Z,98002.03
2023-03-29T13:03:04.279Z,98003.56
2023-03-29T13:05:35.198Z,98012.41
2023-03-29T13:08:22.950Z,98002.22
2023-03-29T13:10:55.513Z,98003.88
2023-03-29T13:13:28.781Z,97992.06
2023-03-29T13:16:16.704Z,97998.72
2023-03-29T13:19:06.768Z,97985.91
2023-03-29T13:21:46.566Z,97991.72
2023-03-29T13:24:33.131Z,97971.97
2023-03-29T13:27:09.966Z,97967.47
2023-03-29T13:29:52.530Z,97973.22
2023-03-29T13:32:34.677Z,97972.44
2023-03-29T13:35:10.731Z,97971.94
2023-03-29T13:37:48.820Z,97959.03
2023-03-29T13:40:43.734Z,97957.91
2023-03-29T13:43:21.734Z,97949.66
2023-03-29T13:46:05.388Z,97945.56
2023-03-29T13:48:52.892Z,97946.78
2023-03-29T13:51:29.083Z,97941.38
2023-03-29T13:54:02.848Z,97938.13
2023-03-29T13:56:35.972Z,97935.78
2023-03-29T13:59:11.517Z,97938.03
2023-03-29T14:01:43.915Z,97940.78
2023-03-29T14:04:21.671Z,97933.03
2023-03-29T14:06:54.139Z,97934.97
2023-03-29T14:09:28.217Z,97914.31
2023-03-29T14:11:57.553Z,97915.75
2023-03-29T14:14:28.730Z,97907.47
2023-03-29T14:16:58.433Z,97908.56
2023-03-29T14:19:32.626Z,97903.50
2023-03-29T14:22:02.218Z,97893.19
2023-03-29T14:24:37.060Z,97895.16
2023-03-29T14:27:07.200Z,97894.63
2023-03-29T14:29:36.672Z,97890.13
2023-03-29T14:32:12.789Z,97896.41
2023-03-29T14:34:42.524Z,97900.28
2023-03-29T14:37:12.810Z,97892.38
2023-03-29T14:39:42.242Z,97892.59
2023-03-29T14:42:17.772Z,97904.66
2023-03-29T14:44:46.082Z,97897.56
2023-03-29T14:47:19.136Z,97895.03
2023-03-29T14:49:48.829Z,97894.13
2023-03-29T14:52:17.445Z,97893.69
2023-03-29T14:54:49.621Z,97892.38
2023-03-29T14:57:19.459Z,97887.81
2023-03-29T14:59:54.942Z,97891.78
2023-03-29T15:02:28.591Z,97888.97
2023-03-29T15:04:59.817Z,97890.94
2023-03-29T15:07:29.628Z,97890.34
2023-03-29T15:09:59.528Z,97901.47
2023-03-29T15:12:30.781Z,97897.19
2023-03-29T15:15:00.374Z,97894.75
2023-03-29T15:17:43.122Z,97897.44
2023-03-29T15:20:23.562Z,97889.50
2023-03-29T15:22:55.204Z,97880.41
2023-03-29T15:25:23.996Z,97875.44
2023-03-29T15:27:57.178Z,97875.00
2023-03-29T15:30:34.835Z,97869.09
2023-03-29T15:33:23.160Z,97877.81
2023-03-29T15:35:54.744Z,97873.97
2023-03-29T15:38:30.234Z,97864.13
2023-03-29T15:41:06.526Z,97864.63
2023-03-29T15:43:35.310Z,97860.41
2023-03-29T15:46:04.058Z,97863.25
2023-03-29T15:48:33.751Z,97858.75
2023-03-29T15:51:06.354Z,97863.19
2023-03-29T15:53:35.211Z,97855.78
2023-03-29T15:56:07.486Z,97869.41
2023-03-29T15:58:37.996Z,97869.41
2023-03-29T16:01:13.778Z,97865.44
2023-03-29T16:03:42.315Z,97866.44
2023-03-29T16:06:13.697Z,97866.28
2023-03-29T16:08:42.151Z,97876.78
2023-03-29T16:11:10.415Z,97867.16
2023-03-29T16:13:38.690Z,97868.78
2023-03-29T16:16:08.446Z,97867.13
2023-03-29T16:18:36.901Z,97859.78
2023-03-29T16:21:06.443Z,97863.09
2023-03-29T16:23:36.047Z,97865.69
2023-03-29T16:26:06.603Z,97868.47
2023-03-29T16:28:34.938Z,97863.50
2023-03-29T16:31:03.243Z,97859.84
2023-03-29T16:33:31.636Z,97850.00
2023-03-29T16:36:00.230Z,97844.69
2023-03-29T16:38:29.380Z,97852.47
2023-03-29T16:40:58.926Z,97854.91
2023-03-29T16:43:27.368Z,97856.06
2023-03-29T16:45:55.703Z,97855.06
2023-03-29T16:48:23.963Z,97869.78
2023-03-29T16:50:52.259Z,97871.06
2023-03-29T16:53:21.624Z,97870.91
2023-03-29T16:55:50.692Z,97870.34
2023-03-29T16:58:20.730Z,97873.91
2023-03-29T17:00:49.670Z,97863.34
2023-03-29T17:03:18.046Z,97882.63
2023-03-29T17:05:49.158Z,97876.53
2023-03-29T17:08:17.848Z,97875.91
2023-03-29T17:10:46.489Z,97876.72
2023-03-29T17:13:14.868Z,97874.38
2023-03-29T17:15:44.546Z,97879.66
2023-03-29T17:18:13.991Z,97871.72
2023-03-29T17:20:42.686Z,97870.06
2023-03-29T17:23:11.452Z,97878.22
2023-03-29T17:25:40.683Z,97870.38
2023-03-29T17:28:08.935Z,97861.72
2023-03-29T17:30:38.422Z,97868.28
2023-03-29T17:33:09.703Z,97879.06
2023-03-29T17:35:38.225Z,97878.38
2023-03-29T17:38:06.719Z,97897.59
2023-03-29T17:40:35.228Z,97897.81
2023-03-29T17:43:04.159Z,97903.03
2023-03-29T17:45:35.751Z,97889.78
2023-03-29T17:48:06.086Z,97886.06
2023-03-29T17:50:37.296Z,97896.09
2023-03-29T17:53:06.786Z,97913.53
2023-03-29T17:55:35.126Z,97902.81
2023-03-29T17:58:04.155Z,97915.47
2023-03-29T18:00:32.992Z,97907.91
2023-03-29T18:03:02.180Z,97911.06
2023-03-29T18:05:31.396Z,97908.00
2023-03-29T18:08:03.069Z,97915.53
2023-03-29T18:10:32.835Z,97922.25
2023-03-29T18:13:02.278Z,97920.69
2023-03-29T18:15:31.268Z,97918.44
2023-03-29T18:18:00.680Z,97914.66
2023-03-29T18:20:29.469Z,97922.00
2023-03-29T18:22:58.979Z,97930.59
2023-03-29T18:25:29.988Z,97927.41
2023-03-29T18:27:59.228Z,97936.53
2023-03-29T18:30:29.560Z,97934.97
2023-03-29T18:32:59.668Z,97928.53
2023-03-29T18:35:29.677Z,97941.56
2023-03-29T18:37:58.914Z,97948.84
2023-03-29T18:40:32.565Z,97943.69
2023-03-29T18:43:02.533Z,97939.50
2023-03-29T18:45:32.742Z,97938.66
2023-03-29T18:48:02.482Z,97938.13
2023-03-29T18:50:32.939Z,97939.53
2023-03-29T18:53:02.759Z,97946.75
2023-03-29T18:55:34.038Z,97943.66
2023-03-29T18:58:05.501Z,97944.19
2023-03-29T19:00:36.033Z,97935.59
2023-03-29T19:03:05.648Z,97938.22
2023-03-29T19:05:36.694Z,97934.06
2023-03-29T19:08:08.272Z,97934.41
2023-03-29T19:10:40.686Z,97941.56
2023-03-29T19:13:14.548Z,97935.63
2023-03-29T19:15:44.354Z,97932.41
2023-03-29T19:18:15.134Z,97935.22
2023-03-29T19:20:46.339Z,97938.31
2023-03-29T19:23:17.916Z,97941.31
2023-03-29T19:25:54.839Z,97940.44
2023-03-29T19:28:26.149Z,97947.66
2023-03-29T19:30:56.483Z,97940.84
2023-03-29T19:33:26.059Z,97950.72
2023-03-29T19:35:56.499Z,97952.91
2023-03-29T19:38:26.382Z,97950.09
2023-03-29T19:40:57.320Z,97942.47
2023-03-29T19:43:29.826Z,97945.19
2023-03-29T19:46:07.525Z,97953.09
2023-03-29T19:48:37.514Z,97948.03
2023-03-29T19:51:08.500Z,97955.28
2023-03-29T19:53:39.004Z,97958.09
2023-03-29T19:56:11.257Z,97960.00
2023-03-29T19:58:41.369Z,97958.16
2023-03-29T20:01:10.272Z,97953.94
2023-03-29T20:03:41.631Z,97961.94
2023-03-29T20:06:12.255Z,97949.81
2023-03-29T20:08:41.611Z,97958.56
2023-03-29T20:11:16.538Z,97950.06
2023-03-29T20:13:46.254Z,97945.72
2023-03-29T20:16:16.620Z,97941.56
2023-03-29T20:18:46.714Z,97936.38
2023-03-29T20:21:18.467Z,97933.91
2023-03-29T20:23:49.672Z,97937.66
2023-03-29T20:26:19.577Z,97932.56
2023-03-29T20:28:48.002Z,97934.75
2023-03-29T20:31:17.203Z,97936.69
2023-03-29T20:33:46.127Z,97925.41
2023-03-29T20:36:18.558Z,97920.13
2023-03-29T20:38:46.967Z,97921.00
2023-03-29T20:41:15.325Z,97914.91
2023-03-29T20:43:46.296Z,97921.22
2023-03-29T20:46:23.905Z,97923.09
2023-03-29T20:48:54.159Z,97936.16
2023-03-29T20:51:30.358Z,97932.69
2023-03-29T20:54:02.833Z,97940.63
2023-03-29T20:56:31.741Z,97932.88
2023-03-29T20:59:01.920Z,97936.53
2023-03-29T21:01:31.295Z,97929.66
2023-03-29T21:03:59.862Z,97935.78
2023-03-29T21:06:28.489Z,97929.72
2023-03-29T21:08:57.506Z,97936.75
2023-03-29T21:11:25.798Z,97926.44
2023-03-29T21:13:54.099Z,97916.75
2023-03-29T21:16:25.324Z,97913.38
2023-03-29T21:18:54.584Z,97914.25
2023-03-29T21:21:23.144Z,97912.66
2023-03-29T21:23:51.459Z,97913.94
2023-03-29T21:26:19.716Z,97917.47
2023-03-29T21:28:48.747Z,97916.59
2023-03-29T21:31:17.075Z,97911.34
2023-03-29T21:33:46.768Z,97906.13
2023-03-29T21:36:15.012Z,97906.50
2023-03-29T21:38:43.259Z,97904.72
2023-03-29T21:41:12.115Z,97916.06
2023-03-29T21:43:40.503Z,97917.84
2023-03-29T21:46:09.103Z,97921.31
2023-03-29T21:48:37.360Z,97923.16
2023-03-29T21:51:07.508Z,97915.31
2023-03-29T21:53:36.239Z,97912.63
2023-03-29T21:56:04.846Z,97912.47
2023-03-29T21:58:33.087Z,97912.28
2023-03-29T22:01:03.879Z,97912.09
2023-03-29T22:03:32.442Z,97897.31
2023-03-29T22:06:03.600Z,97903.13
2023-03-29T22:08:33.137Z,97898.91
2023-03-29T22:11:08.329Z,97889.31
2023-03-29T22:13:36.804Z,97885.84
2023-03-29T22:16:06.193Z,97890.97
2023-03-29T22:18:43.303Z,97905.16
2023-03-29T22:21:14.524Z,97903.66
2023-03-29T22:23:45.947Z,97895.16
2023-03-29T22:26:16.165Z,97884.75
2023-03-29T22:28:44.626Z,97888.22
2023-03-29T22:31:15.171Z,97901.47
2023-03-29T22:33:44.059Z,97898.91
2023-03-29T22:36:16.885Z,97899.72
2023-03-29T22:38:48.114Z,97880.63
2023-03-29T22:41:17.589Z,97889.13
2023-03-29T22:43:46.192Z,97873.56
2023-03-29T22:46:15.418Z,97881.25
2023-03-29T22:48:43.613Z,97876.81
2023-03-29T22:51:11.906Z,97874.22
2023-03-29T22:53:40.116Z,97873.22
2023-03-29T22:56:10.562Z,97882.72
2023-03-29T22:58:39.160Z,97875.56
2023-03-29T23:01:08.292Z,97869.31
2023-03-29T23:03:36.930Z,97863.88
2023-03-29T23:06:05.662Z,97872.38
2023-03-29T23:08:35.128Z,97871.41
2023-03-29T23:11:04.459Z,97863.47
2023-03-29T23:13:35.298Z,97876.50
2023-03-29T23:16:04.963Z,97867.75
2023-03-29T23:18:34.931Z,97867.59
2023-03-29T23:21:05.874Z,97865.84
2023-03-29T23:23:34.698Z,97871.13
2023-03-29T23:26:02.891Z,97869.34
2023-03-29T23:28:31.506Z,97870.13
2023-03-29T23:31:03.410Z,97874.31
2023-03-29T23:33:35.483Z,97867.94
2023-03-29T23:36:06.057Z,97849.41
2023-03-29T23:38:36.607Z,97850.25
2023-03-29T23:41:06.849Z,97847.50
2023-03-29T23:43:37.356Z,97856.97
2023-03-29T23:46:09.027Z,97864.88
2023-03-29T23:48:37.253Z,97849.16
2023-03-29T23:51:06.148Z,97838.59
2023-03-29T23:53:34.571Z,97843.81
2023-03-29T23:56:05.237Z,97845.53
2023-03-29T23:58:35.182Z,97843.59
